Terminal Aerodrome Forecast
Issued by NWS

Home | Current Version | Previous Version | Text Only | Print | Product List | Glossary On
Versions: 1 2 3 4 5 6 7 8 9 10 11 12
000
FTUS44 KEPZ 281100
TAFTCS
TAF
KTCS 281122Z 2812/2912 30006KT P6SM FEW300
     FM281400 VRB05KT P6SM FEW300
     FM282000 17006KT P6SM FEW300
     FM290300 31005KT P6SM SKC=

USA.gov is the U.S. government's official web portal to all federal, state and local government web resources and services.